createdAt,value
2023-03-11T00:00:58.171Z,64.30
2023-03-11T00:03:47.749Z,59.30
2023-03-11T00:06:36.906Z,59.20
2023-03-11T00:09:19.188Z,62.10
2023-03-11T00:12:07.867Z,68.03
2023-03-11T00:14:50.169Z,64.85
2023-03-11T00:17:38.881Z,65.50
2023-03-11T00:20:41.761Z,63.72
2023-03-11T00:23:31.870Z,67.35
2023-03-11T00:26:20.816Z,62.05
2023-03-11T00:29:09.178Z,66.47
2023-03-11T00:31:50.903Z,66.65
2023-03-11T00:34:39.138Z,59.50
2023-03-11T00:37:21.848Z,60.20
2023-03-11T00:40:16.866Z,69.83
2023-03-11T00:42:59.363Z,94.85
2023-03-11T00:45:48.034Z,139.90
2023-03-11T00:48:30.181Z,159.32
2023-03-11T00:51:24.877Z,144.32
2023-03-11T00:54:13.923Z,130.35
2023-03-11T00:56:57.129Z,161.70
2023-03-11T00:59:45.842Z,180.93
2023-03-11T01:02:34.121Z,167.80
2023-03-11T01:05:17.848Z,125.05
2023-03-11T01:08:00.853Z,103.82
2023-03-11T01:10:50.848Z,95.43
2023-03-11T01:13:33.275Z,89.45
2023-03-11T01:16:22.909Z,88.03
2023-03-11T01:19:11.890Z,73.72
2023-03-11T01:22:02.901Z,75.45
2023-03-11T01:24:45.124Z,71.38
2023-03-11T01:27:33.924Z,98.88
2023-03-11T01:30:20.476Z,121.07
2023-03-11T01:33:11.166Z,133.43
2023-03-11T01:36:00.296Z,99.95
2023-03-11T01:38:42.836Z,89.55
2023-03-11T01:41:31.117Z,83.82
2023-03-11T01:44:13.792Z,86.70
2023-03-11T01:46:56.025Z,94.00
2023-03-11T01:49:49.786Z,105.05
2023-03-11T01:52:32.573Z,103.95
2023-03-11T01:55:22.884Z,104.40
2023-03-11T01:58:15.856Z,96.38
2023-03-11T02:00:59.140Z,102.17
2023-03-11T02:03:49.801Z,92.97
2023-03-11T02:06:33.176Z,91.72
2023-03-11T02:09:21.891Z,76.75
2023-03-11T02:12:06.144Z,88.95
2023-03-11T02:14:58.805Z,90.53
2023-03-11T02:17:44.180Z,79.72
2023-03-11T02:20:51.882Z,82.35
2023-03-11T02:24:21.100Z,92.25
2023-03-11T02:27:04.879Z,86.60
2023-03-11T02:29:49.233Z,78.57
2023-03-11T02:32:38.962Z,88.60
2023-03-11T02:35:29.173Z,77.65
2023-03-11T02:38:14.359Z,76.85
2023-03-11T02:41:08.285Z,72.38
2023-03-11T02:43:53.897Z,86.43
2023-03-11T02:46:44.820Z,93.03
2023-03-11T02:49:30.182Z,88.13
2023-03-11T02:52:20.697Z,71.75
2023-03-11T02:55:04.164Z,79.63
2023-03-11T02:57:55.851Z,94.78
2023-03-11T03:00:38.334Z,79.53
2023-03-11T03:03:27.836Z,79.82
2023-03-11T03:06:16.725Z,86.93
2023-03-11T03:09:07.834Z,82.63
2023-03-11T03:11:50.151Z,70.93
2023-03-11T03:14:39.915Z,80.97
2023-03-11T03:17:22.178Z,87.25
2023-03-11T03:20:14.810Z,84.28
2023-03-11T03:23:13.873Z,70.45
2023-03-11T03:26:03.453Z,83.97
2023-03-11T03:28:46.778Z,82.93
2023-03-11T03:31:29.180Z,83.72
2023-03-11T03:34:18.832Z,83.03
2023-03-11T03:37:08.107Z,74.32
2023-03-11T03:39:50.885Z,74.90
2023-03-11T03:42:39.934Z,77.43
2023-03-11T03:45:23.102Z,70.47
2023-03-11T03:48:12.841Z,61.47
2023-03-11T03:51:02.889Z,58.13
2023-03-11T03:53:48.998Z,58.60
2023-03-11T03:56:40.314Z,68.57
2023-03-11T03:59:28.086Z,61.22
2023-03-11T04:02:10.935Z,48.70
2023-03-11T04:04:59.846Z,62.03
2023-03-11T04:07:43.109Z,45.42
2023-03-11T04:10:32.819Z,51.50
2023-03-11T04:13:15.135Z,62.72
2023-03-11T04:16:04.813Z,57.13
2023-03-11T04:18:47.103Z,51.35
2023-03-11T04:21:42.884Z,52.75
2023-03-11T04:24:32.142Z,61.17
2023-03-11T04:27:14.910Z,61.50
2023-03-11T04:30:04.237Z,63.17
2023-03-11T04:32:46.934Z,63.78
2023-03-11T04:35:36.428Z,57.88
2023-03-11T04:38:18.859Z,49.47
2023-03-11T04:41:05.802Z,49.72
2023-03-11T04:43:56.886Z,42.53
2023-03-11T04:46:45.050Z,47.40
2023-03-11T04:49:30.385Z,35.15
2023-03-11T04:52:24.875Z,46.70
2023-03-11T04:55:15.116Z,51.65
2023-03-11T04:57:57.909Z,48.30
2023-03-11T05:00:42.388Z,47.53
2023-03-11T05:03:31.835Z,52.38
2023-03-11T05:06:15.399Z,50.17
2023-03-11T05:09:03.894Z,49.63
2023-03-11T05:11:55.138Z,52.00
2023-03-11T05:14:38.857Z,51.42
2023-03-11T05:17:28.265Z,52.92
2023-03-11T05:20:15.629Z,47.00
2023-03-11T05:23:06.680Z,44.80
2023-03-11T05:25:49.853Z,40.38
2023-03-11T05:28:32.795Z,41.60
2023-03-11T05:34:05.023Z,51.05
2023-03-11T05:36:53.842Z,58.38
2023-03-11T05:39:38.864Z,43.58
2023-03-11T05:42:30.128Z,41.28
2023-03-11T05:45:20.182Z,39.50
2023-03-11T05:48:03.819Z,46.90
2023-03-11T05:50:54.255Z,49.10
2023-03-11T05:53:36.888Z,34.53
2023-03-11T05:56:28.241Z,56.35
2023-03-11T05:59:12.847Z,39.80
2023-03-11T06:02:03.613Z,34.28
2023-03-11T06:04:55.153Z,39.17
2023-03-11T06:07:45.097Z,31.95
2023-03-11T06:10:27.833Z,28.40
2023-03-11T06:13:17.177Z,33.00
2023-03-11T06:16:00.892Z,26.95
2023-03-11T06:18:43.026Z,27.65
2023-03-11T06:21:34.850Z,32.55
2023-03-11T06:24:23.168Z,24.17
2023-03-11T06:27:07.687Z,21.50
2023-03-11T06:30:01.183Z,28.42
2023-03-11T06:32:52.983Z,34.97
2023-03-11T06:35:35.054Z,30.02
2023-03-11T06:38:23.858Z,22.33
2023-03-11T06:41:07.578Z,23.70
2023-03-11T06:43:57.835Z,22.42
2023-03-11T06:46:41.540Z,22.23
2023-03-11T06:49:31.835Z,24.40
2023-03-11T06:52:21.268Z,25.52
2023-03-11T06:55:04.843Z,24.85
2023-03-11T06:57:47.193Z,18.75
2023-03-11T07:00:36.180Z,22.00
2023-03-11T07:03:25.083Z,24.02
2023-03-11T07:06:08.881Z,23.77
2023-03-11T07:08:59.284Z,25.38
2023-03-11T07:11:43.846Z,22.70
2023-03-11T07:14:33.064Z,22.23
2023-03-11T07:17:21.861Z,21.90
2023-03-11T07:20:12.138Z,21.70
2023-03-11T07:23:07.811Z,18.33
2023-03-11T07:25:57.226Z,22.73
2023-03-11T07:28:39.907Z,28.98
2023-03-11T07:31:32.239Z,17.17
2023-03-11T07:34:18.965Z,17.67
2023-03-11T07:37:08.173Z,26.23
2023-03-11T07:39:50.852Z,19.10
2023-03-11T07:42:39.158Z,19.40
2023-03-11T07:45:21.883Z,20.58
2023-03-11T07:48:11.063Z,16.27
2023-03-11T07:50:53.923Z,22.50
2023-03-11T07:53:43.230Z,19.38
2023-03-11T07:56:26.860Z,19.65
2023-03-11T07:59:15.070Z,15.30
2023-03-11T08:01:57.842Z,25.75
2023-03-11T08:04:46.138Z,21.67
2023-03-11T08:07:29.190Z,18.48
2023-03-11T08:10:18.178Z,16.10
2023-03-11T08:13:00.877Z,19.17
2023-03-11T08:15:43.177Z,19.27
2023-03-11T08:18:31.839Z,20.85
2023-03-11T08:21:16.971Z,19.70
2023-03-11T08:24:07.054Z,22.65
2023-03-11T08:27:00.957Z,18.50
2023-03-11T08:32:25.066Z,23.75
2023-03-11T08:35:14.854Z,22.50
2023-03-11T08:37:57.130Z,20.13
2023-03-11T08:40:45.833Z,21.88
2023-03-11T08:43:35.218Z,14.27
2023-03-11T08:46:22.030Z,22.63
2023-03-11T08:49:05.344Z,14.35
2023-03-11T08:51:53.767Z,19.63
2023-03-11T08:54:43.834Z,20.58
2023-03-11T08:57:26.871Z,20.48
2023-03-11T09:00:17.475Z,14.48
2023-03-11T09:03:00.221Z,20.17
2023-03-11T09:05:48.809Z,18.33
2023-03-11T09:08:31.250Z,20.65
2023-03-11T09:11:23.143Z,18.23
2023-03-11T09:14:05.164Z,19.42
2023-03-11T09:16:53.868Z,19.50
2023-03-11T09:19:37.057Z,18.80
2023-03-11T09:22:31.793Z,16.67
2023-03-11T09:25:21.173Z,20.58
2023-03-11T09:28:02.847Z,17.17
2023-03-11T09:30:51.217Z,15.77
2023-03-11T09:33:33.787Z,22.77
2023-03-11T09:36:25.209Z,22.38
2023-03-11T09:39:08.877Z,20.00
2023-03-11T09:42:03.205Z,13.77
2023-03-11T09:45:02.872Z,18.88
2023-03-11T09:48:12.824Z,24.65
2023-03-11T09:50:58.207Z,14.10
2023-03-11T09:53:54.874Z,19.92
2023-03-11T09:56:44.584Z,16.35
2023-03-11T09:59:42.010Z,18.23
2023-03-11T10:02:28.755Z,18.05
2023-03-11T10:05:37.859Z,15.15
2023-03-11T10:09:05.599Z,23.23
2023-03-11T10:12:20.102Z,18.83
2023-03-11T10:15:08.338Z,24.05
2023-03-11T10:18:25.762Z,27.38
2023-03-11T10:21:29.878Z,18.23
2023-03-11T10:25:08.253Z,18.65
2023-03-11T10:27:55.865Z,20.40
2023-03-11T10:31:09.215Z,17.55
2023-03-11T10:34:14.886Z,23.13
2023-03-11T10:37:46.292Z,15.98
2023-03-11T10:40:47.895Z,20.77
2023-03-11T10:44:10.113Z,18.55
2023-03-11T10:46:52.839Z,15.77
2023-03-11T10:49:41.092Z,20.98
2023-03-11T10:52:24.837Z,17.92
2023-03-11T10:55:14.149Z,17.10
2023-03-11T10:57:56.856Z,17.90
2023-03-11T11:00:39.125Z,18.60
2023-03-11T11:03:35.838Z,16.63
2023-03-11T11:06:30.185Z,19.92
2023-03-11T11:09:33.779Z,19.88
2023-03-11T11:12:18.790Z,19.17
2023-03-11T11:15:08.088Z,15.75
2023-03-11T11:17:57.122Z,15.90
2023-03-11T11:20:40.926Z,21.23
2023-03-11T11:24:03.629Z,22.92
2023-03-11T11:27:11.910Z,19.77
2023-03-11T11:29:56.071Z,18.35
2023-03-11T11:32:45.963Z,21.48
2023-03-11T11:35:31.175Z,21.90
2023-03-11T11:38:20.055Z,25.52
2023-03-11T11:41:06.564Z,14.20
2023-03-11T11:44:02.806Z,27.02
2023-03-11T11:47:06.485Z,15.38
2023-03-11T11:50:05.760Z,16.70
2023-03-11T11:53:03.840Z,17.20
2023-03-11T11:55:51.683Z,17.55
2023-03-11T11:58:40.827Z,18.15
2023-03-11T12:01:40.125Z,25.23
2023-03-11T12:04:48.824Z,22.58
2023-03-11T12:08:05.329Z,17.75
2023-03-11T12:11:01.849Z,16.02
2023-03-11T12:14:05.356Z,17.83
2023-03-11T12:17:25.238Z,19.17
2023-03-11T12:20:24.161Z,24.58
2023-03-11T12:23:17.813Z,18.58
2023-03-11T12:26:21.826Z,20.25
2023-03-11T12:29:21.836Z,21.50
2023-03-11T12:32:11.942Z,21.20
2023-03-11T12:35:01.142Z,27.77
2023-03-11T12:37:43.832Z,16.63
2023-03-11T12:40:48.408Z,22.02
2023-03-11T12:47:01.494Z,30.20
2023-03-11T12:49:59.790Z,32.63
2023-03-11T12:52:56.403Z,25.15
2023-03-11T12:55:47.819Z,23.02
2023-03-11T12:58:48.124Z,17.92
2023-03-11T13:02:01.995Z,24.02
2023-03-11T13:05:08.810Z,22.13
2023-03-11T13:08:08.792Z,26.95
2023-03-11T13:11:02.078Z,25.73
2023-03-11T13:13:45.824Z,22.58
2023-03-11T13:16:28.169Z,24.60
2023-03-11T13:19:49.139Z,27.23
2023-03-11T13:23:17.880Z,32.22
2023-03-11T13:26:27.855Z,25.60
2023-03-11T13:29:30.249Z,22.27
2023-03-11T13:32:36.901Z,22.70
2023-03-11T13:35:56.402Z,21.75
2023-03-11T13:39:16.843Z,21.88
2023-03-11T13:42:00.309Z,20.52
2023-03-11T13:44:49.854Z,26.77
2023-03-11T13:47:39.259Z,32.20
2023-03-11T13:50:39.790Z,28.83
2023-03-11T13:53:40.836Z,29.83
2023-03-11T13:56:37.111Z,27.35
2023-03-11T13:59:32.871Z,26.33
2023-03-11T14:02:31.359Z,23.38
2023-03-11T14:05:24.830Z,34.15
2023-03-11T14:08:28.402Z,22.00
2023-03-11T14:11:29.858Z,26.80
2023-03-11T14:14:52.221Z,28.30
2023-03-11T14:17:34.867Z,34.67
2023-03-11T14:20:21.132Z,34.20
2023-03-11T14:23:12.214Z,24.50
2023-03-11T14:26:13.060Z,21.00
2023-03-11T14:29:00.062Z,27.88
2023-03-11T14:31:47.062Z,27.30
2023-03-11T14:34:40.912Z,32.50
2023-03-11T14:37:29.162Z,30.65
2023-03-11T14:40:19.888Z,22.65
2023-03-11T14:43:16.857Z,27.08
2023-03-11T14:46:01.185Z,25.67
2023-03-11T14:48:51.832Z,29.20
2023-03-11T14:51:39.171Z,28.13
2023-03-11T14:54:35.938Z,26.73
2023-03-11T14:57:32.138Z,26.75
2023-03-11T15:00:47.876Z,28.98
2023-03-11T15:03:55.819Z,36.75
2023-03-11T15:06:50.150Z,27.83
2023-03-11T15:09:34.827Z,28.33
2023-03-11T15:12:45.875Z,31.60
2023-03-11T15:15:32.092Z,25.25
2023-03-11T15:18:31.830Z,30.75
2023-03-11T15:21:26.266Z,36.92
2023-03-11T15:24:14.949Z,26.35
2023-03-11T15:27:13.110Z,23.98
2023-03-11T15:30:02.814Z,23.27
2023-03-11T15:32:57.195Z,29.50
2023-03-11T15:35:56.257Z,32.40
2023-03-11T15:38:37.821Z,35.38
2023-03-11T15:41:26.903Z,33.50
2023-03-11T15:44:09.425Z,46.55
2023-03-11T15:46:57.855Z,44.40
2023-03-11T15:49:41.348Z,35.83
2023-03-11T15:52:29.914Z,37.20
2023-03-11T15:55:12.433Z,31.38
2023-03-11T15:58:11.808Z,36.85
2023-03-11T16:01:00.204Z,41.58
2023-03-11T16:03:48.888Z,24.77
2023-03-11T16:06:31.249Z,37.88
2023-03-11T16:09:20.867Z,35.05
2023-03-11T16:12:03.275Z,34.38
2023-03-11T16:14:52.853Z,41.47
2023-03-11T16:17:48.873Z,40.60
2023-03-11T16:21:22.986Z,37.33
2023-03-11T16:24:29.150Z,44.95
2023-03-11T16:27:11.814Z,40.97
2023-03-11T16:30:01.290Z,49.95
2023-03-11T16:32:42.871Z,47.03
2023-03-11T16:35:32.164Z,36.35
2023-03-11T16:38:15.784Z,34.83
2023-03-11T16:41:00.965Z,44.53
2023-03-11T16:43:49.860Z,41.80
2023-03-11T16:46:32.129Z,43.78
2023-03-11T16:49:24.697Z,47.00
2023-03-11T16:52:07.260Z,32.95
2023-03-11T16:54:55.819Z,42.13
2023-03-11T16:57:44.152Z,31.70
2023-03-11T17:00:26.809Z,33.67
2023-03-11T17:03:21.550Z,40.67
2023-03-11T17:06:12.804Z,38.58
2023-03-11T17:09:01.265Z,28.77
2023-03-11T17:11:43.871Z,31.90
2023-03-11T17:14:27.064Z,38.22
2023-03-11T17:17:15.858Z,41.25
2023-03-11T17:20:04.732Z,36.47
2023-03-11T17:23:00.882Z,40.20
2023-03-11T17:25:50.050Z,53.55
2023-03-11T17:28:31.869Z,55.97
2023-03-11T17:31:23.388Z,59.92
2023-03-11T17:34:06.900Z,39.45
2023-03-11T17:36:57.164Z,42.40
2023-03-11T17:39:38.837Z,47.83
2023-03-11T17:42:21.203Z,43.85
2023-03-11T17:45:12.767Z,42.45
2023-03-11T17:48:02.252Z,48.78
2023-03-11T17:50:48.075Z,50.95
2023-03-11T17:53:39.010Z,48.72
2023-03-11T17:56:22.817Z,43.33
2023-03-11T17:59:12.201Z,35.78
2023-03-11T18:01:54.848Z,39.45
2023-03-11T18:04:44.843Z,33.28
2023-03-11T18:07:28.189Z,29.65
2023-03-11T18:10:17.816Z,35.67
2023-03-11T18:13:00.205Z,33.30
2023-03-11T18:15:48.799Z,30.90
2023-03-11T18:18:53.689Z,24.02
2023-03-11T18:21:42.828Z,27.63
2023-03-11T18:24:32.191Z,35.20
2023-03-11T18:27:14.797Z,32.60
2023-03-11T18:29:57.001Z,28.38
2023-03-11T18:32:45.910Z,29.25
2023-03-11T18:35:28.263Z,34.97
2023-03-11T18:38:18.910Z,28.13
2023-03-11T18:41:08.334Z,27.48
2023-03-11T18:43:50.859Z,25.23
2023-03-11T18:46:43.614Z,30.48
2023-03-11T18:49:25.753Z,28.13
2023-03-11T18:52:08.162Z,25.65
2023-03-11T18:54:57.243Z,28.10
2023-03-11T18:57:41.395Z,27.30
2023-03-11T19:00:30.747Z,46.65
2023-03-11T19:03:13.831Z,31.92
2023-03-11T19:06:03.769Z,32.40
2023-03-11T19:08:52.859Z,32.45
2023-03-11T19:11:35.304Z,34.67
2023-03-11T19:14:23.870Z,40.35
2023-03-11T19:17:06.262Z,40.90
2023-03-11T19:19:54.802Z,37.00
2023-03-11T19:22:37.299Z,45.25
2023-03-11T19:25:28.103Z,38.75
2023-03-11T19:28:10.129Z,39.78
2023-03-11T19:31:04.013Z,35.30
2023-03-11T19:33:51.955Z,40.28
2023-03-11T19:36:40.904Z,36.55
2023-03-11T19:39:23.286Z,43.35
2023-03-11T19:42:11.806Z,38.58
2023-03-11T19:44:55.495Z,39.72
2023-03-11T19:47:44.863Z,42.47
2023-03-11T19:50:33.842Z,39.50
2023-03-11T19:53:24.139Z,39.67
2023-03-11T19:56:07.138Z,37.97
2023-03-11T19:58:55.206Z,35.95
2023-03-11T20:01:38.791Z,41.05
2023-03-11T20:04:33.773Z,38.47
2023-03-11T20:07:22.905Z,38.05
2023-03-11T20:10:05.302Z,39.45
2023-03-11T20:13:02.030Z,42.30
2023-03-11T20:15:46.242Z,39.17
2023-03-11T20:18:34.818Z,34.53
2023-03-11T20:21:20.167Z,39.72
2023-03-11T20:24:15.767Z,36.28
2023-03-11T20:27:04.906Z,44.65
2023-03-11T20:29:47.202Z,48.20
2023-03-11T20:32:36.924Z,37.25
2023-03-11T20:35:19.602Z,51.35
2023-03-11T20:38:10.832Z,45.40
2023-03-11T20:40:53.189Z,46.92
2023-03-11T20:43:42.744Z,49.58
2023-03-11T20:46:25.196Z,53.13
2023-03-11T20:49:13.806Z,41.40
2023-03-11T20:52:02.824Z,46.55
2023-03-11T20:54:51.822Z,42.88
2023-03-11T20:57:41.714Z,39.55
2023-03-11T21:00:30.880Z,46.53
2023-03-11T21:03:13.070Z,39.67
2023-03-11T21:06:02.238Z,39.45
2023-03-11T21:08:44.154Z,42.10
2023-03-11T21:11:33.935Z,44.20
2023-03-11T21:14:17.203Z,41.13
2023-03-11T21:17:05.987Z,45.23
2023-03-11T21:19:48.221Z,42.28
2023-03-11T21:22:36.834Z,44.92
2023-03-11T21:25:31.661Z,41.53
2023-03-11T21:28:21.803Z,43.25
2023-03-11T21:31:12.196Z,45.45
2023-03-11T21:34:02.900Z,46.47
2023-03-11T21:36:51.892Z,49.50
2023-03-11T21:39:40.109Z,51.40
2023-03-11T21:42:22.946Z,44.97
2023-03-11T21:45:12.148Z,53.83
2023-03-11T21:47:53.932Z,51.95
2023-03-11T21:50:36.560Z,48.38
2023-03-11T21:53:25.891Z,45.85
2023-03-11T21:56:15.203Z,48.38
2023-03-11T21:58:57.923Z,50.47
2023-03-11T22:01:46.906Z,49.28
2023-03-11T22:04:29.179Z,39.20
2023-03-11T22:07:18.843Z,49.15
2023-03-11T22:10:01.117Z,55.28
2023-03-11T22:12:50.129Z,51.05
2023-03-11T22:15:33.078Z,52.80
2023-03-11T22:18:21.907Z,60.37
2023-03-11T22:21:12.933Z,52.50
2023-03-11T22:24:08.711Z,53.08
2023-03-11T22:26:57.827Z,51.72
2023-03-11T22:29:40.404Z,46.42
2023-03-11T22:32:29.850Z,55.63
2023-03-11T22:35:18.772Z,56.15
2023-03-11T22:38:01.027Z,51.63
2023-03-11T22:40:49.787Z,54.80
2023-03-11T22:43:38.914Z,53.50
2023-03-11T22:46:21.129Z,64.85
2023-03-11T22:49:09.855Z,51.28
2023-03-11T22:51:58.861Z,61.85
2023-03-11T22:54:47.746Z,58.22
2023-03-11T22:57:37.838Z,58.53
2023-03-11T23:00:23.503Z,64.20
2023-03-11T23:03:12.850Z,66.55
2023-03-11T23:05:55.112Z,64.20
2023-03-11T23:08:43.878Z,61.67
2023-03-11T23:11:25.980Z,66.47
2023-03-11T23:14:14.830Z,71.28
2023-03-11T23:17:04.152Z,67.03
2023-03-11T23:19:46.095Z,69.43
2023-03-11T23:22:34.838Z,72.45
2023-03-11T23:25:31.736Z,72.15
2023-03-11T23:28:20.769Z,66.25
2023-03-11T23:31:04.416Z,63.55
2023-03-11T23:33:53.794Z,65.72
2023-03-11T23:36:38.072Z,66.97
2023-03-11T23:39:26.789Z,68.35
2023-03-11T23:42:25.404Z,77.63
2023-03-11T23:45:16.127Z,82.90
2023-03-11T23:47:58.864Z,71.85
2023-03-11T23:50:41.097Z,74.00
2023-03-11T23:53:30.818Z,67.18
2023-03-11T23:56:23.048Z,71.07
2023-03-11T23:59:04.818Z,68.65
